Hanwell, United Kingdom
Current Conditions -  °F | °C
As of 6:50 PM on Tuesday 27 Jan 2015 (Local Time) from EGWU Reporting Station
Broken Clouds Broken Clouds  
Wind Chill: 39°   Ceiling: 2800
Heat Index: 45°   Visibility: 6mi
Dew Point: 36°   Wind: 10mph
Humidity: 71%   Direction: 270°W
Pressure: 30.24"   Gusts: NA
Location:  51.52°N, 0.34°W
Report Text: EGWU 271850Z 27009KT 9999 BKN028 07/02 Q1024 TEMPO SCT024
Loading
Personal Weather Stations






























Interactive Weather Map New forecast layout! Learn more

10-Day Weather Forecast

Advertisements
Track Severe Weather on mobile